Millboro, Virginia
Current Conditions -  °F | °C
As of 7:15 PM on Saturday 20 Dec 2014 (Local Time) from KHSP Reporting Station
Overcast Overcast  
Wind Chill: 23°   Ceiling: 4600
Heat Index: 31°   Visibility: 10mi
Dew Point: 30°   Wind: 9mph
Humidity: 97%   Direction: 270°W
Pressure: 30.1"   Gusts: NA
Location:  37.98°N, 79.6°W
Report Text: KHSP 210015Z AUTO 27008KT 10SM OVC046 M01/M01 A3010 RMK AO2 T10071011
Loading
Personal Weather Stations






























Interactive Weather Map New forecast layout! Learn more

10-Day Weather Forecast

Advertisements
Track Severe Weather on mobile